Terminal Aerodrome Forecast
Issued by NWS

Home | Current Version | Previous Version | Text Only | Print | Product List | Glossary On
Versions: 1 2 3 4 5 6 7 8 9 10 11 12 13 14
000
FTUS45 KREV 200520
TAFTVL
TAF
KTVL 200520Z 2006/2106 19018G30KT P6SM VCSH SCT030 BKN035
      WS020/24050KT
     FM200800 20011G18KT 6SM -RA BKN020 OVC035 WS020/24050KT
     FM201200 20010KT 3SM -SHSN SCT015 BKN025
     FM201400 20011G16KT P6SM SCT035 BKN050
     FM202000 19010KT P6SM SCT050
     FM210200 19003KT P6SM SCT150=

USA.gov is the U.S. government's official web portal to all federal, state and local government web resources and services.